Time;durP1;ratioP1;P1;durP2;ratioP2;P2;SDS_P1;SDS_P2;PMS_P1;PMS_P2;Temp;Humidity;BMP_temperature;BMP_pressure;BME280_temperature;BME280_humidity;BME280_pressure;Samples;Min_cycle;Max_cycle;Signal;HPM_P1;HPM_P2
2023/01/28 00:01:35;;;;;;;;;49.00;30.25;;;;;5.60;68.88;102329.41;5100574;27;45330;-53
2023/01/28 00:04:01;;;;;;;;;40.00;30.75;;;;;5.60;69.49;102328.56;5100256;27;45580;-53
2023/01/28 00:06:26;;;;;;;;;29.25;20.75;;;;;5.60;68.87;102323.28;5100454;27;45163;-52
2023/01/28 00:08:51;;;;;;;;;34.25;26.25;;;;;5.56;68.36;102330.50;5100921;27;45443;-51
2023/01/28 00:11:17;;;;;;;;;31.00;27.00;;;;;5.55;68.82;102327.94;5082224;27;45487;-51
2023/01/28 00:13:42;;;;;;;;;30.50;24.75;;;;;5.53;68.72;102332.47;5081655;27;46303;-51
2023/01/28 00:16:08;;;;;;;;;36.75;27.75;;;;;5.50;68.27;102336.09;5099579;27;45442;-51
2023/01/28 00:18:34;;;;;;;;;32.75;26.25;;;;;5.48;69.01;102330.91;5099746;27;45529;-51
2023/01/28 00:21:00;;;;;;;;;31.50;27.25;;;;;5.50;69.04;102331.66;5099777;27;45454;-51
2023/01/28 00:23:30;;;;;;;;;31.00;24.25;;;;;5.49;68.52;102332.59;5099586;27;46079;-52
2023/01/28 00:25:59;;;;;;;;;29.25;21.00;;;;;5.49;68.84;102327.31;5099490;27;45229;-51
2023/01/28 00:28:25;;;;;;;;;38.75;28.75;;;;;5.46;68.90;102327.47;5099604;27;45768;-50
2023/01/28 00:30:50;;;;;;;;;33.00;27.75;;;;;5.50;68.27;102330.81;5099725;27;45328;-53
2023/01/28 00:33:16;;;;;;;;;28.50;26.50;;;;;5.50;68.66;102336.09;5099372;27;46179;-53
2023/01/28 00:35:41;;;;;;;;;29.00;23.50;;;;;5.44;68.07;102331.97;5099354;27;45472;-51
2023/01/28 00:38:07;;;;;;;;;31.25;25.50;;;;;5.49;68.37;102337.88;5099007;27;45358;-49
2023/01/28 00:40:33;;;;;;;;;35.25;27.25;;;;;5.49;68.59;102339.66;5098725;27;45369;-52
2023/01/28 00:42:58;;;;;;;;;38.75;24.25;;;;;5.49;68.30;102343.16;5099221;27;46387;-51
2023/01/28 00:45:23;;;;;;;;;36.50;26.25;;;;;5.48;68.59;102333.53;5099296;27;45487;-52
2023/01/28 00:47:49;;;;;;;;;37.75;27.75;;;;;5.49;68.52;102329.97;5099502;27;45483;-49
2023/01/28 00:50:14;;;;;;;;;27.75;22.25;;;;;5.50;68.16;102326.38;5099568;27;45382;-52
2023/01/28 00:52:40;;;;;;;;;33.25;26.00;;;;;5.51;68.04;102327.25;5097562;27;47429;-52
2023/01/28 00:55:06;;;;;;;;;36.25;26.75;;;;;5.50;68.05;102328.19;5099020;27;45390;-50
2023/01/28 00:57:32;;;;;;;;;32.00;28.25;;;;;5.42;68.54;102317.13;5099175;27;45231;-49
2023/01/28 00:59:58;;;;;;;;;26.25;21.25;;;;;5.50;68.21;102328.19;5099222;27;45273;-50
2023/01/28 01:02:23;;;;;;;;;21.00;17.00;;;;;5.47;67.79;102321.25;5099089;27;46111;-49
2023/01/28 01:04:58;;;;;;;;;27.50;26.00;;;;;5.46;68.08;102324.81;5099114;27;45296;-49
2023/01/28 01:07:33;;;;;;;;;20.00;17.25;;;;;5.47;67.84;102325.69;5099092;27;45334;-48
2023/01/28 01:10:02;;;;;;;;;27.25;21.75;;;;;5.47;68.27;102331.81;5099109;27;45393;-51
2023/01/28 01:12:28;;;;;;;;;39.50;30.75;;;;;5.48;68.22;102332.69;5098580;27;45254;-51
2023/01/28 01:14:54;;;;;;;;;31.75;18.75;;;;;5.46;67.85;102338.03;5098835;27;45296;-50
2023/01/28 01:17:20;;;;;;;;;41.75;35.75;;;;;5.44;67.99;102337.25;5098850;27;45343;-48
2023/01/28 01:19:46;;;;;;;;;35.00;23.00;;;;;5.39;67.78;102335.75;5098864;27;45240;-50
2023/01/28 01:22:11;;;;;;;;;33.75;24.75;;;;;5.39;67.93;102333.13;5098318;27;46231;-52
2023/01/28 01:24:36;;;;;;;;;20.75;20.75;;;;;5.43;68.04;102343.44;5080346;27;45368;-50
2023/01/28 01:27:02;;;;;;;;;24.25;14.50;;;;;5.42;68.27;102341.75;5098955;27;45309;-52
2023/01/28 01:29:28;;;;;;;;;34.75;21.25;;;;;5.44;68.02;102342.53;5098812;27;45319;-49
2023/01/28 01:31:54;;;;;;;;;21.25;15.25;;;;;5.43;67.78;102345.22;5098519;27;46428;-52
2023/01/28 01:34:19;;;;;;;;;31.25;21.25;;;;;5.44;67.55;102341.69;5098470;27;45321;-53
2023/01/28 01:36:44;;;;;;;;;27.25;19.25;;;;;5.41;68.06;102342.69;5098441;27;46068;-50
2023/01/28 01:39:12;;;;;;;;;41.25;24.75;;;;;5.41;67.47;102349.75;5098612;27;45317;-47
2023/01/28 01:41:38;;;;;;;;;24.00;21.75;;;;;5.40;67.75;102345.41;5098179;27;45465;-51
2023/01/28 01:44:05;;;;;;;;;36.75;23.00;;;;;5.40;67.38;102342.75;5098440;27;45225;-51
2023/01/28 01:46:40;;;;;;;;;34.25;21.25;;;;;5.40;67.33;102343.63;5098541;27;45238;-52
2023/01/28 01:49:25;;;;;;;;;21.50;19.00;;;;;5.30;67.29;102334.41;5098382;27;45333;-48
2023/01/28 01:51:56;;;;;;;;;22.25;17.75;;;;;5.41;67.21;102341.81;5097554;27;45380;-52
2023/01/28 01:54:27;;;;;;;;;26.00;21.75;;;;;5.40;67.41;102342.75;5098105;27;45427;-51
2023/01/28 01:56:52;;;;;;;;;27.50;21.00;;;;;5.25;68.03;102326.72;5098374;27;45435;-51
2023/01/28 01:59:23;;;;;;;;;27.00;20.50;;;;;5.38;67.60;102347.25;5098284;27;45371;-51
2023/01/28 02:01:49;;;;;;;;;25.00;17.75;;;;;5.37;67.48;102348.19;5097947;27;45347;-49
2023/01/28 02:04:31;;;;;;;;;21.50;19.25;;;;;5.36;67.36;102347.31;5097639;27;45344;-51
2023/01/28 02:06:59;;;;;;;;;30.00;19.25;;;;;5.40;67.40;102350.69;5097865;27;45520;-50
2023/01/28 02:09:26;;;;;;;;;37.25;21.25;;;;;5.40;67.56;102342.75;5097931;27;45496;-48
2023/01/28 02:11:55;;;;;;;;;24.00;20.00;;;;;5.40;67.09;102345.41;5097717;27;45343;-52
2023/01/28 02:14:23;;;;;;;;;24.50;16.75;;;;;5.30;67.48;102338.84;5097550;27;45447;-49
2023/01/28 02:16:49;;;;;;;;;31.00;18.50;;;;;5.37;67.52;102354.31;5098010;27;45282;-51
2023/01/28 02:19:18;;;;;;;;;27.00;20.25;;;;;5.38;67.47;102350.72;5097670;27;45179;-52
2023/01/28 02:21:53;;;;;;;;;29.50;21.25;;;;;5.37;67.33;102351.66;5097539;27;46373;-52
2023/01/28 02:24:40;;;;;;;;;27.75;22.00;;;;;5.35;67.57;102356.19;5097515;27;45385;-50
2023/01/28 02:27:17;;;;;;;;;25.75;21.25;;;;;5.31;67.70;102351.09;5097780;27;45467;-50
2023/01/28 02:30:02;;;;;;;;;23.00;17.75;;;;;5.34;67.61;102353.59;5097835;27;45357;-50
2023/01/28 02:32:36;;;;;;;;;22.00;21.50;;;;;5.32;67.53;102358.09;5097015;27;45459;-51
2023/01/28 02:35:34;;;;;;;;;29.00;19.75;;;;;5.33;67.67;102354.53;5097383;27;46131;-51
2023/01/28 02:38:14;;;;;;;;;28.25;21.25;;;;;5.32;67.60;102366.03;5033864;28;45326;-49
2023/01/28 02:41:01;;;;;;;;;26.75;18.75;;;;;5.30;68.06;102355.53;5034498;28;45546;-50
2023/01/28 02:43:29;;;;;;;;;27.25;19.25;;;;;5.28;68.17;102362.66;5034548;28;47119;-52
2023/01/28 02:48:39;;;;;;;;;38.25;21.00;;;;;5.19;67.71;102347.28;5034085;28;45441;-51
2023/01/28 02:51:22;;;;;;;;;26.00;21.00;;;;;5.21;67.56;102361.25;5034425;28;45637;-50
2023/01/28 02:54:00;;;;;;;;;21.75;20.25;;;;;5.20;68.05;102359.53;5034001;28;47235;-50
2023/01/28 02:56:54;;;;;;;;;27.25;21.25;;;;;5.12;68.27;102346.69;5033998;28;45454;-55
2023/01/28 02:59:32;;;;;;;;;25.50;19.00;;;;;5.19;68.15;102363.13;5034098;28;45477;-51
2023/01/28 03:02:16;;;;;;;;;31.25;20.00;;;;;5.15;67.78;102357.13;5034316;28;45299;-52
2023/01/28 03:04:59;;;;;;;;;25.00;18.50;;;;;5.09;68.26;102351.25;5036292;28;46225;-50
2023/01/28 03:07:28;;;;;;;;;33.75;25.50;;;;;5.15;67.47;102361.53;5037481;28;45628;-50
2023/01/28 03:09:57;;;;;;;;;31.50;22.00;;;;;5.09;68.21;102354.75;5037908;28;45402;-50
2023/01/28 03:37:52;;;;;;;;;25.33;23.00;;;;;5.10;67.89;102379.34;5099745;27;45889;-52
2023/01/28 03:40:17;;;;;;;;;31.50;20.75;;;;;5.06;68.12;102373.38;5100207;27;45513;-52
2023/01/28 03:42:43;;;;;;;;;24.75;18.50;;;;;5.12;67.51;102390.69;5100600;27;45366;-51
2023/01/28 03:45:09;;;;;;;;;31.00;25.25;;;;;5.12;67.55;102399.47;5100556;27;45490;-53
2023/01/28 03:47:34;;;;;;;;;23.00;19.50;;;;;5.11;67.70;102397.75;5100121;27;46200;-52
2023/01/28 03:49:59;;;;;;;;;27.75;17.75;;;;;5.12;67.32;102395.97;5099461;27;45379;-50
2023/01/28 03:52:30;;;;;;;;;40.25;23.50;;;;;5.10;67.54;102396.06;5100112;27;46292;-51
2023/01/28 03:54:56;;;;;;;;;30.00;22.25;;;;;5.11;67.10;102391.63;5100442;27;45317;-52
2023/01/28 03:57:24;;;;;;;;;32.50;23.25;;;;;5.11;67.36;102397.75;5081385;27;45942;-53
2023/01/28 03:59:51;;;;;;;;;33.25;25.00;;;;;5.11;67.67;102392.47;5099922;27;45345;-52
2023/01/28 04:02:18;;;;;;;;;27.25;22.00;;;;;5.12;67.39;102393.34;5100128;27;45340;-51
2023/01/28 04:04:43;;;;;;;;;33.75;22.25;;;;;5.14;67.86;102396.75;5100131;27;45348;-51
2023/01/28 04:07:10;;;;;;;;;32.25;20.25;;;;;5.12;67.10;102399.47;5099643;27;45444;-52
2023/01/28 04:09:36;;;;;;;;;30.00;23.75;;;;;5.13;67.12;102402.94;5099896;27;45360;-51
2023/01/28 04:12:02;;;;;;;;;31.75;20.50;;;;;5.14;67.35;102409.94;5099747;27;45436;-52
2023/01/28 04:14:27;;;;;;;;;26.25;18.00;;;;;5.14;67.32;102410.81;5099897;27;45260;-50
2023/01/28 04:16:55;;;;;;;;;41.75;17.75;;;;;5.15;67.05;102406.38;5098486;27;46299;-51
2023/01/28 04:19:23;;;;;;;;;31.50;17.00;;;;;5.11;66.88;102408.31;5098267;27;45459;-48
2023/01/28 04:21:49;;;;;;;;;24.50;17.75;;;;;5.13;67.29;102409.06;5099904;27;45319;-52
2023/01/28 04:24:15;;;;;;;;;31.00;19.00;;;;;5.14;66.90;102412.56;5099653;27;45499;-52
2023/01/28 04:26:41;;;;;;;;;33.00;25.50;;;;;5.02;66.83;102392.91;5099387;27;46916;-51
2023/01/28 04:29:06;;;;;;;;;27.00;18.50;;;;;5.06;66.82;102397.13;5099676;27;45293;-52
2023/01/28 04:31:32;;;;;;;;;29.75;22.50;;;;;5.06;66.85;102399.75;5099685;27;45478;-53
2023/01/28 04:33:58;;;;;;;;;26.00;18.25;;;;;5.17;67.30;102415.94;5099953;27;45349;-51
2023/01/28 04:36:24;;;;;;;;;32.00;24.75;;;;;5.08;66.45;102400.53;5099286;27;46166;-53
2023/01/28 04:38:50;;;;;;;;;27.25;20.50;;;;;5.20;66.67;102423.72;5099200;27;45332;-51
2023/01/28 04:41:15;;;;;;;;;22.00;18.50;;;;;5.20;67.13;102426.34;5099923;27;45366;-51
2023/01/28 04:43:40;;;;;;;;;30.50;22.75;;;;;5.20;66.92;102426.34;5099595;27;45253;-52
2023/01/28 04:46:06;;;;;;;;;17.75;7.25;;;;;5.20;67.10;102428.13;5099381;27;45443;-52
2023/01/28 04:48:33;;;;;;;;;36.50;25.50;;;;;5.20;66.74;102426.34;5099287;27;45390;-52
2023/01/28 04:50:59;;;;;;;;;23.25;20.50;;;;;5.22;66.82;102429.78;5099360;27;45448;-52
2023/01/28 04:53:24;;;;;;;;;28.75;16.50;;;;;5.16;66.80;102423.91;5099223;27;45213;-48
2023/01/28 04:55:49;;;;;;;;;35.50;25.25;;;;;5.15;66.47;102428.34;5098976;27;46152;-50
2023/01/28 04:58:14;;;;;;;;;27.25;19.00;;;;;5.16;66.57;102445.03;5099019;27;45376;-52
2023/01/28 05:00:40;;;;;;;;;22.00;21.00;;;;;5.14;66.91;102445.09;5099130;27;45313;-52
2023/01/28 05:03:05;;;;;;;;;26.75;21.25;;;;;5.12;67.04;102446.09;5099374;27;45357;-51
2023/01/28 05:05:31;;;;;;;;;29.75;23.50;;;;;5.09;66.86;102430.41;5099108;27;46170;-51
2023/01/28 05:07:57;;;;;;;;;28.25;24.75;;;;;5.03;67.13;102428.06;5098646;27;45474;-53
2023/01/28 05:10:24;;;;;;;;;41.25;22.25;;;;;5.09;66.63;102425.97;5099172;27;45557;-50
2023/01/28 05:12:49;;;;;;;;;30.50;23.00;;;;;5.11;66.46;102441.75;5099081;27;45305;-50
2023/01/28 05:15:16;;;;;;;;;29.00;25.50;;;;;5.09;67.02;102439.16;5098638;27;45488;-52
2023/01/28 05:17:42;;;;;;;;;20.75;15.75;;;;;5.09;66.34;102441.81;5098749;27;45375;-51
2023/01/28 05:20:08;;;;;;;;;30.50;24.75;;;;;5.09;66.86;102439.16;5098575;27;45434;-52
2023/01/28 05:22:33;;;;;;;;;40.25;24.75;;;;;5.11;66.85;102429.41;5098916;27;45360;-49
2023/01/28 05:24:59;;;;;;;;;34.50;21.50;;;;;5.07;66.65;102433.13;5098303;27;47596;-51
2023/01/28 05:27:24;;;;;;;;;24.50;17.00;;;;;5.08;67.08;102436.59;5097793;27;45409;-52
2023/01/28 05:29:49;;;;;;;;;29.00;24.25;;;;;5.09;66.69;102430.41;5098888;27;45225;-49
2023/01/28 05:32:15;;;;;;;;;38.75;29.00;;;;;5.07;66.32;102434.91;5098699;27;45285;-47
2023/01/28 05:34:40;;;;;;;;;37.00;23.00;;;;;5.09;67.27;102444.44;5098487;27;45210;-49
2023/01/28 05:37:05;;;;;;;;;32.75;26.25;;;;;5.07;67.20;102441.03;5097884;27;45422;-51
2023/01/28 05:39:31;;;;;;;;;43.25;31.50;;;;;5.06;66.63;102444.59;5098182;27;45260;-52
2023/01/28 05:41:56;;;;;;;;;25.25;17.50;;;;;5.07;66.76;102442.81;5098541;27;45308;-52
2023/01/28 05:44:21;;;;;;;;;33.75;28.00;;;;;5.07;67.12;102448.09;5098052;27;45319;-52
2023/01/28 05:46:47;;;;;;;;;36.50;25.25;;;;;5.01;67.53;102433.38;5098392;27;45313;-49
2023/01/28 05:49:12;;;;;;;;;28.50;23.50;;;;;5.07;66.73;102437.53;5098290;27;45460;-49
2023/01/28 05:51:38;;;;;;;;;38.75;29.75;;;;;5.07;66.49;102429.63;5098473;27;45265;-52
2023/01/28 05:54:05;;;;;;;;;37.50;24.00;;;;;5.05;66.74;102434.94;5098068;27;45410;-52
2023/01/28 05:56:30;;;;;;;;;34.50;25.50;;;;;4.99;67.64;102432.59;5097650;27;45487;-53
2023/01/28 05:58:55;;;;;;;;;28.50;21.50;;;;;5.01;67.06;102441.28;5098146;27;45324;-51
2023/01/28 06:01:21;;;;;;;;;39.50;23.25;;;;;4.98;67.42;102450.22;5098294;27;45481;-51
2023/01/28 06:03:46;;;;;;;;;32.50;22.75;;;;;4.93;67.61;102451.31;5098021;27;45406;-52
2023/01/28 06:06:11;;;;;;;;;35.25;24.25;;;;;4.88;67.63;102455.94;5097863;27;45332;-51
2023/01/28 06:08:37;;;;;;;;;52.50;28.25;;;;;4.83;67.21;102458.78;5098027;27;45498;-53
2023/01/28 06:11:02;;;;;;;;;32.75;26.50;;;;;4.77;67.61;102456.44;5098262;27;45315;-51
2023/01/28 06:13:28;;;;;;;;;32.75;21.50;;;;;4.73;67.45;102452.22;5097849;27;47222;-48
2023/01/28 06:15:53;;;;;;;;;31.50;18.50;;;;;4.57;67.78;102440.63;5097722;27;45287;-49
2023/01/28 06:18:18;;;;;;;;;46.25;31.75;;;;;4.64;67.94;102460.53;5098009;27;45388;-51
2023/01/28 06:20:44;;;;;;;;;33.50;24.25;;;;;4.61;68.42;102450.13;5097337;27;45412;-53
2023/01/28 06:23:09;;;;;;;;;36.75;26.50;;;;;4.59;68.46;102459.84;5097647;27;46850;-51
2023/01/28 06:25:34;;;;;;;;;31.75;22.75;;;;;4.60;68.50;102464.22;5097616;27;45360;-50
2023/01/28 06:28:00;;;;;;;;;31.50;22.25;;;;;4.51;68.68;102454.94;5097919;27;45384;-56
2023/01/28 06:30:25;;;;;;;;;32.25;25.50;;;;;4.59;69.19;102480.94;5098085;27;45441;-48
2023/01/28 06:32:54;;;;;;;;;31.50;26.50;;;;;4.60;68.49;102480.91;5097579;27;47180;-50
2023/01/28 06:35:20;;;;;;;;;43.25;29.00;;;;;4.60;68.82;102482.69;5097560;27;45359;-51
2023/01/28 06:37:45;;;;;;;;;32.25;26.50;;;;;4.62;68.28;102483.47;5096935;27;45282;-50
2023/01/28 06:40:11;;;;;;;;;41.00;28.50;;;;;4.63;68.26;102487.78;5096827;27;45440;-51
2023/01/28 06:42:36;;;;;;;;;43.50;26.50;;;;;4.63;68.10;102478.09;5097199;27;47205;-49
2023/01/28 06:45:02;;;;;;;;;28.00;24.25;;;;;4.65;68.28;102496.50;5097369;27;45388;-51
2023/01/28 06:47:27;;;;;;;;;36.25;24.00;;;;;4.62;67.94;102491.38;5097683;27;45564;-53
2023/01/28 06:49:52;;;;;;;;;31.25;21.25;;;;;4.61;68.80;102485.25;5097589;27;46292;-54
2023/01/28 06:52:18;;;;;;;;;33.50;25.75;;;;;4.62;68.02;102494.84;5095900;27;45475;-48
2023/01/28 06:54:43;;;;;;;;;29.00;24.25;;;;;4.65;68.51;102504.41;5097221;27;45522;-50
2023/01/28 06:57:08;;;;;;;;;32.25;24.00;;;;;4.65;68.08;102505.28;5097386;27;45452;-53
2023/01/28 06:59:34;;;;;;;;;35.75;28.50;;;;;4.65;67.99;102507.06;5097722;27;45449;-52
2023/01/28 07:01:59;;;;;;;;;30.25;26.75;;;;;4.66;68.02;102506.13;5097142;27;45253;-51
2023/01/28 07:04:25;;;;;;;;;32.75;22.50;;;;;4.67;68.66;102502.56;5097075;27;45249;-50
2023/01/28 07:06:50;;;;;;;;;37.75;21.50;;;;;4.70;68.39;102516.47;5097785;27;45340;-52
2023/01/28 07:09:15;;;;;;;;;22.25;19.00;;;;;4.71;68.36;102515.53;5097746;27;45299;-53
2023/01/28 07:11:41;;;;;;;;;26.75;23.25;;;;;4.71;67.30;102510.28;5097456;27;45442;-51
2023/01/28 07:14:06;;;;;;;;;28.50;21.75;;;;;4.75;67.71;102516.28;5097243;27;45442;-49
2023/01/28 07:16:31;;;;;;;;;42.75;28.25;;;;;4.78;67.97;102510.03;5078968;27;45338;-53
2023/01/28 07:18:56;;;;;;;;;31.75;23.50;;;;;4.71;67.38;102490.97;5097200;27;45429;-47
2023/01/28 07:21:22;;;;;;;;;31.25;23.25;;;;;4.87;67.25;102526.28;5096851;27;46045;-52
2023/01/28 07:23:47;;;;;;;;;30.75;21.75;;;;;4.85;67.80;102503.56;5096973;27;50011;-51
2023/01/28 07:26:14;;;;;;;;;32.00;21.75;;;;;4.90;67.25;102517.41;5097062;27;45208;-50
2023/01/28 07:28:39;;;;;;;;;27.50;19.00;;;;;4.92;66.87;102523.47;5097489;27;45319;-52
2023/01/28 07:31:05;;;;;;;;;40.75;23.00;;;;;4.97;67.45;102526.75;5096882;27;45448;-53
2023/01/28 07:33:30;;;;;;;;;24.50;22.00;;;;;4.99;66.80;102523.13;5097060;27;45327;-49
2023/01/28 07:35:55;;;;;;;;;25.00;23.00;;;;;5.03;66.71;102520.38;5097338;27;45635;-50
2023/01/28 07:38:21;;;;;;;;;33.75;18.50;;;;;5.01;66.64;102525.69;5096778;27;45420;-49
2023/01/28 07:40:46;;;;;;;;;28.00;24.75;;;;;5.06;67.55;102531.66;5078542;27;46301;-54
2023/01/28 07:43:12;;;;;;;;;29.00;21.50;;;;;5.03;66.66;102531.78;5096795;27;45512;-52
2023/01/28 07:45:37;;;;;;;;;28.50;20.50;;;;;5.08;66.69;102534.19;5096872;27;45883;-52
2023/01/28 07:48:05;;;;;;;;;42.25;31.25;;;;;5.06;66.71;102523.72;5097217;27;45338;-51
2023/01/28 07:50:34;;;;;;;;;27.75;16.50;;;;;5.12;66.37;102535.78;5098593;27;46559;-53
2023/01/28 07:53:02;;;;;;;;;37.00;23.75;;;;;5.13;66.76;102538.34;5100246;27;45459;-53
2023/01/28 07:55:28;;;;;;;;;33.25;22.50;;;;;5.14;66.31;102534.81;5100200;27;45385;-51
2023/01/28 07:57:56;;;;;;;;;24.50;21.25;;;;;5.15;66.78;102536.50;5100395;27;45357;-52
2023/01/28 08:00:23;;;;;;;;;35.75;26.50;;;;;5.17;66.30;102536.44;5099780;27;46915;-53
2023/01/28 08:02:48;;;;;;;;;27.25;21.25;;;;;5.19;66.36;102542.50;5100059;27;45351;-49
2023/01/28 08:05:18;;;;;;;;;38.75;28.75;;;;;5.19;66.49;102539.88;5100012;27;45247;-53
2023/01/28 08:07:44;;;;;;;;;38.50;28.75;;;;;5.21;65.92;102536.22;5100398;27;45304;-53
2023/01/28 08:10:11;;;;;;;;;30.50;25.25;;;;;5.24;66.05;102540.53;5099665;27;45225;-53
2023/01/28 08:12:37;;;;;;;;;40.25;24.75;;;;;5.24;66.52;102538.72;5099919;27;45305;-52
2023/01/28 08:15:04;;;;;;;;;33.75;23.50;;;;;5.29;66.04;102545.59;5100079;27;45442;-54
2023/01/28 08:17:30;;;;;;;;;32.00;26.00;;;;;5.30;65.66;102539.38;5100087;27;45274;-55
2023/01/28 08:19:56;;;;;;;;;28.00;23.25;;;;;5.30;65.93;102537.59;5099697;27;45422;-57
2023/01/28 08:22:25;;;;;;;;;34.50;20.75;;;;;5.38;65.54;102558.38;5115646;27;45869;-56
2023/01/28 08:24:50;;;;;;;;;28.75;22.00;;;;;5.42;65.61;102549.38;5099797;27;45233;-55
2023/01/28 08:27:15;;;;;;;;;32.75;28.00;;;;;5.43;65.74;102553.72;5099710;27;45293;-56
2023/01/28 08:29:42;;;;;;;;;34.25;22.25;;;;;5.46;65.92;102550.97;5099588;27;46220;-55
2023/01/28 08:32:08;;;;;;;;;44.00;27.50;;;;;5.47;65.18;102542.13;5099597;27;45254;-57
2023/01/28 08:34:33;;;;;;;;;37.50;27.75;;;;;5.56;65.17;102551.41;5099637;27;45407;-55
2023/01/28 08:36:59;;;;;;;;;30.50;24.25;;;;;5.53;65.45;102544.50;5099738;27;45270;-56
2023/01/28 08:39:24;;;;;;;;;25.00;18.75;;;;;5.65;65.08;102557.13;5099354;27;45368;-58
2023/01/28 08:41:49;;;;;;;;;25.00;21.00;;;;;5.70;65.09;102554.28;5099211;27;45425;-56
2023/01/28 08:44:15;;;;;;;;;32.75;26.00;;;;;5.73;64.61;102556.75;5098138;27;45335;-56
2023/01/28 08:46:40;;;;;;;;;38.25;24.00;;;;;5.72;64.36;102563.81;5099559;27;45403;-55
2023/01/28 08:49:05;;;;;;;;;35.00;27.25;;;;;5.74;64.57;102561.97;5098982;27;49073;-57
2023/01/28 08:51:30;;;;;;;;;34.75;24.50;;;;;5.79;64.82;102569.69;5099295;27;45395;-57
2023/01/28 08:53:56;;;;;;;;;36.75;22.50;;;;;5.82;63.83;102579.28;5099326;27;45257;-55
2023/01/28 08:56:21;;;;;;;;;23.25;21.00;;;;;5.83;64.24;102579.19;5099553;27;45527;-57
2023/01/28 08:58:46;;;;;;;;;34.75;26.00;;;;;5.85;63.70;102598.44;5098992;27;45932;-55
2023/01/28 09:01:12;;;;;;;;;37.25;25.75;;;;;5.84;64.01;102578.25;5098070;27;45393;-53
2023/01/28 09:03:37;;;;;;;;;39.50;24.25;;;;;5.83;63.84;102583.63;5099145;27;45462;-54
2023/01/28 09:06:04;;;;;;;;;30.00;22.25;;;;;5.83;63.82;102594.19;5099260;27;45458;-55
2023/01/28 09:08:29;;;;;;;;;31.00;25.00;;;;;5.80;64.06;102596.94;5098747;27;46466;-54
2023/01/28 09:10:58;;;;;;;;;28.75;24.00;;;;;5.80;64.05;102592.53;5098799;27;45249;-53
2023/01/28 09:13:24;;;;;;;;;38.00;25.50;;;;;5.81;63.63;102590.72;5098958;27;45389;-56
2023/01/28 09:15:50;;;;;;;;;27.50;24.75;;;;;5.80;63.33;102592.53;5099043;27;45323;-58
2023/01/28 09:18:16;;;;;;;;;40.50;22.50;;;;;5.73;63.59;102585.81;5098501;27;45408;-61
2023/01/28 09:20:41;;;;;;;;;33.25;19.50;;;;;5.75;63.83;102595.38;5098646;27;45355;-59
2023/01/28 09:23:07;;;;;;;;;28.25;22.50;;;;;5.78;63.71;102599.69;5080574;27;45402;-59
2023/01/28 09:25:34;;;;;;;;;37.50;28.50;;;;;5.75;63.05;102590.09;5098786;27;45400;-59
2023/01/28 09:28:00;;;;;;;;;43.75;26.50;;;;;5.79;63.23;102598.75;5098619;27;46283;-59
2023/01/28 09:30:26;;;;;;;;;24.25;18.00;;;;;5.79;63.59;102606.66;5098549;27;45328;-61
2023/01/28 09:32:53;;;;;;;;;32.25;23.00;;;;;5.81;63.37;102602.16;5098806;27;45358;-58
2023/01/28 09:35:19;;;;;;;;;31.00;23.50;;;;;5.80;63.26;102607.50;5098595;27;45433;-58
2023/01/28 09:37:45;;;;;;;;;40.00;25.25;;;;;5.79;63.14;102608.44;5098057;27;46121;-59
2023/01/28 09:40:40;;;;;;;;;29.00;21.00;;;;;5.77;63.11;102611.13;5098574;27;45305;-60
2023/01/28 09:43:43;;;;;;;;;35.50;23.00;;;;;5.76;63.03;102614.72;5090686;27;45471;-59
2023/01/28 09:46:13;;;;;;;;;25.50;20.25;;;;;5.67;62.63;102599.28;5098199;27;45296;-58
2023/01/28 09:48:47;;;;;;;;;23.75;20.00;;;;;5.73;63.25;102613.09;5098051;27;45371;-60
2023/01/28 09:51:37;;;;;;;;;38.75;25.00;;;;;5.62;62.74;102610.06;5098496;27;45418;-57
2023/01/28 09:54:29;;;;;;;;;38.50;23.25;;;;;5.68;62.88;102616.84;5098553;27;45240;-58
2023/01/28 09:57:04;;;;;;;;;25.50;19.25;;;;;5.70;62.92;102623.78;5015149;28;45565;-59
2023/01/28 09:59:33;;;;;;;;;33.75;22.25;;;;;5.68;62.87;102619.47;5015064;28;46212;-57
2023/01/28 10:02:28;;;;;;;;;30.25;21.25;;;;;5.67;63.15;102613.34;4998407;28;45606;-57
2023/01/28 10:04:53;;;;;;;;;35.25;22.50;;;;;5.69;62.54;102619.44;5014601;28;45495;-56
2023/01/28 10:07:31;;;;;;;;;30.25;23.50;;;;;5.72;62.64;102611.34;5015372;28;45288;-55
2023/01/28 10:09:59;;;;;;;;;26.75;20.50;;;;;5.73;63.52;102622.78;5015190;28;46145;-57
2023/01/28 10:12:48;;;;;;;;;33.75;22.50;;;;;5.70;61.99;102622.94;5014791;28;45611;-58
2023/01/28 10:15:41;;;;;;;;;38.50;26.00;;;;;5.67;62.23;102626.56;5015033;28;45284;-58
2023/01/28 10:18:12;;;;;;;;;26.25;22.50;;;;;5.67;61.83;102625.69;5015038;28;45513;-56
2023/01/28 10:20:51;;;;;;;;;28.75;13.00;;;;;5.52;61.46;102603.50;5014564;28;46342;-56
2023/01/28 10:23:54;;;;;;;;;27.00;19.50;;;;;5.60;61.65;102626.88;5014813;28;45464;-59
2023/01/28 10:26:34;;;;;;;;;34.50;26.25;;;;;5.62;61.69;102630.34;4975023;28;45538;-60
2023/01/28 10:29:10;;;;;;;;;25.50;20.50;;;;;5.62;62.43;102628.53;4975573;28;45455;-58
2023/01/28 10:31:40;;;;;;;;;24.25;19.75;;;;;5.60;61.81;102635.66;4975281;28;46152;-60
2023/01/28 10:34:06;;;;;;;;;18.75;17.25;;;;;5.54;62.40;102629.81;4997105;28;45336;-59
2023/01/28 10:36:32;;;;;;;;;31.50;22.50;;;;;5.53;61.17;102636.88;5014591;28;45547;-59
2023/01/28 10:38:57;;;;;;;;;37.00;19.50;;;;;5.48;61.30;102629.16;5014730;28;45528;-59
2023/01/28 10:41:25;;;;;;;;;20.00;18.50;;;;;5.44;61.65;102627.59;5014384;28;46285;-59
2023/01/28 10:43:50;;;;;;;;;31.75;22.00;;;;;5.43;61.83;102640.84;5014434;28;45461;-58
2023/01/28 10:46:22;;;;;;;;;23.50;20.75;;;;;5.44;61.59;102651.34;5014635;28;45485;-58
2023/01/28 10:48:57;;;;;;;;;26.50;22.50;;;;;5.40;61.67;102647.13;5014777;28;45461;-56
2023/01/28 10:51:39;;;;;;;;;25.25;20.75;;;;;5.40;62.27;102641.00;5014145;28;45537;-51
2023/01/28 10:54:20;;;;;;;;;26.50;22.25;;;;;5.41;61.94;102651.47;5014230;28;45406;-49
2023/01/28 10:56:50;;;;;;;;;27.75;20.50;;;;;5.41;61.95;102658.53;5014156;28;45490;-53
2023/01/28 10:59:18;;;;;;;;;20.75;18.00;;;;;5.41;61.71;102640.91;5014557;28;45540;-53
2023/01/28 11:01:48;;;;;;;;;30.25;22.50;;;;;5.43;62.52;102654.88;5049159;27;45593;-50
2023/01/28 11:04:18;;;;;;;;;52.50;29.00;;;;;5.43;62.79;102656.66;5097139;27;45408;-49
2023/01/28 11:06:55;;;;;;;;;30.25;21.75;;;;;5.43;62.46;102649.59;5097384;27;45333;-49
2023/01/28 11:09:23;;;;;;;;;30.50;22.25;;;;;5.40;62.30;102646.25;5096525;27;45493;-50
2023/01/28 11:11:48;;;;;;;;;34.75;27.25;;;;;5.41;61.96;102647.97;5097034;27;45432;-55
2023/01/28 11:14:25;;;;;;;;;26.50;24.75;;;;;5.44;62.03;102642.56;5097226;27;45431;-52
2023/01/28 11:16:53;;;;;;;;;28.50;24.00;;;;;5.47;61.75;102637.13;5097235;27;45473;-52
2023/01/28 11:19:28;;;;;;;;;27.50;21.25;;;;;5.53;61.88;102644.81;5079118;27;45328;-51
2023/01/28 11:21:55;;;;;;;;;26.25;21.50;;;;;5.59;61.91;102633.94;5097126;27;45505;-54
2023/01/28 11:24:32;;;;;;;;;23.50;18.00;;;;;5.63;61.87;102619.69;5096907;27;45288;-58
2023/01/28 11:27:14;;;;;;;;;21.75;18.50;;;;;5.78;61.81;102622.59;5100566;27;45364;-55
2023/01/28 11:29:40;;;;;;;;;19.00;17.00;;;;;5.91;60.92;102624.59;5100889;27;45503;-55
2023/01/28 11:32:16;;;;;;;;;26.50;24.50;;;;;6.00;61.16;102612.78;5100313;27;45456;-54
2023/01/28 11:34:49;;;;;;;;;26.75;21.50;;;;;6.12;60.90;102595.50;5100543;27;45373;-55
2023/01/28 11:37:15;;;;;;;;;34.50;24.50;;;;;6.28;60.16;102614.09;5100369;27;46025;-53
2023/01/28 11:39:41;;;;;;;;;22.50;21.00;;;;;6.38;59.65;102612.75;5098096;27;45309;-53
2023/01/28 11:42:18;;;;;;;;;25.25;19.50;;;;;6.47;59.65;102620.22;5100101;27;47276;-55
2023/01/28 11:44:46;;;;;;;;;15.25;11.75;;;;;6.56;58.88;102616.28;5100267;27;45320;-55
2023/01/28 11:47:14;;;;;;;;;30.75;22.75;;;;;6.60;59.17;102608.13;5100418;27;45221;-54
2023/01/28 11:49:58;;;;;;;;;22.00;21.00;;;;;6.67;59.05;102614.84;5100355;27;45748;-55
2023/01/28 11:52:51;;;;;;;;;15.25;12.00;;;;;6.72;59.02;102612.81;5099934;27;47377;-56